sensor_id;sensor_type;location;lat;lon;timestamp;temperature;humidity
37356;DHT22;48747;50.250;18.848;2023-05-07T00:01:36;10.50;99.90
37356;DHT22;48747;50.250;18.848;2023-05-07T00:03:42;10.50;99.90
37356;DHT22;48747;50.250;18.848;2023-05-07T00:05:52;10.50;99.90
37356;DHT22;48747;50.250;18.848;2023-05-07T00:07:57;10.60;99.90
37356;DHT22;48747;50.250;18.848;2023-05-07T00:10:03;10.50;99.90
37356;DHT22;48747;50.250;18.848;2023-05-07T00:12:11;10.60;99.90
37356;DHT22;48747;50.250;18.848;2023-05-07T00:14:20;10.60;99.90
37356;DHT22;48747;50.250;18.848;2023-05-07T00:16:25;10.50;99.90
37356;DHT22;48747;50.250;18.848;2023-05-07T00:18:38;10.50;99.90
37356;DHT22;48747;50.250;18.848;2023-05-07T00:20:46;10.50;99.90
37356;DHT22;48747;50.250;18.848;2023-05-07T00:22:47;10.40;99.90
37356;DHT22;48747;50.250;18.848;2023-05-07T00:24:50;10.30;99.90
37356;DHT22;48747;50.250;18.848;2023-05-07T00:26:53;10.30;99.90
37356;DHT22;48747;50.250;18.848;2023-05-07T00:29:00;10.40;99.90
37356;DHT22;48747;50.250;18.848;2023-05-07T00:31:03;10.30;99.90
37356;DHT22;48747;50.250;18.848;2023-05-07T00:33:06;10.30;99.90
37356;DHT22;48747;50.250;18.848;2023-05-07T00:35:14;10.30;99.90
37356;DHT22;48747;50.250;18.848;2023-05-07T00:37:25;10.30;99.90
37356;DHT22;48747;50.250;18.848;2023-05-07T00:39:31;10.30;99.90
37356;DHT22;48747;50.250;18.848;2023-05-07T00:41:32;10.30;99.90
37356;DHT22;48747;50.250;18.848;2023-05-07T00:43:35;10.20;99.90
37356;DHT22;48747;50.250;18.848;2023-05-07T00:45:45;10.20;99.90
37356;DHT22;48747;50.250;18.848;2023-05-07T00:47:58;10.20;99.90
37356;DHT22;48747;50.250;18.848;2023-05-07T00:50:01;10.20;99.90
37356;DHT22;48747;50.250;18.848;2023-05-07T00:52:06;10.20;99.90
37356;DHT22;48747;50.250;18.848;2023-05-07T00:54:14;10.30;99.90
37356;DHT22;48747;50.250;18.848;2023-05-07T00:56:21;10.20;99.90
37356;DHT22;48747;50.250;18.848;2023-05-07T00:58:27;10.20;99.90
37356;DHT22;48747;50.250;18.848;2023-05-07T01:00:33;10.20;99.90
37356;DHT22;48747;50.250;18.848;2023-05-07T01:02:48;10.20;99.90
37356;DHT22;48747;50.250;18.848;2023-05-07T01:04:45;10.10;99.90
37356;DHT22;48747;50.250;18.848;2023-05-07T01:06:49;10.10;99.90
37356;DHT22;48747;50.250;18.848;2023-05-07T01:08:54;10.10;99.90
37356;DHT22;48747;50.250;18.848;2023-05-07T01:11:11;10.20;99.90
37356;DHT22;48747;50.250;18.848;2023-05-07T01:13:12;10.10;99.90
37356;DHT22;48747;50.250;18.848;2023-05-07T01:15:17;10.20;99.90
37356;DHT22;48747;50.250;18.848;2023-05-07T01:17:21;10.10;99.90
37356;DHT22;48747;50.250;18.848;2023-05-07T01:19:26;10.00;99.90
37356;DHT22;48747;50.250;18.848;2023-05-07T01:21:38;10.00;99.90
37356;DHT22;48747;50.250;18.848;2023-05-07T01:23:39;9.90;99.90
37356;DHT22;48747;50.250;18.848;2023-05-07T01:25:43;9.90;99.90
37356;DHT22;48747;50.250;18.848;2023-05-07T01:27:46;9.90;99.90
37356;DHT22;48747;50.250;18.848;2023-05-07T01:30:01;9.90;99.90
37356;DHT22;48747;50.250;18.848;2023-05-07T01:31:59;9.90;99.90
37356;DHT22;48747;50.250;18.848;2023-05-07T01:34:05;9.90;99.90
37356;DHT22;48747;50.250;18.848;2023-05-07T01:36:11;9.80;99.90
37356;DHT22;48747;50.250;18.848;2023-05-07T01:38:18;9.80;99.90
37356;DHT22;48747;50.250;18.848;2023-05-07T01:40:27;9.80;99.90
37356;DHT22;48747;50.250;18.848;2023-05-07T01:42:32;9.80;99.90
37356;DHT22;48747;50.250;18.848;2023-05-07T01:44:37;9.80;99.90
37356;DHT22;48747;50.250;18.848;2023-05-07T01:46:42;9.80;99.90
37356;DHT22;48747;50.250;18.848;2023-05-07T01:48:47;9.80;99.90
37356;DHT22;48747;50.250;18.848;2023-05-07T01:50:55;9.80;99.90
37356;DHT22;48747;50.250;18.848;2023-05-07T01:53:03;9.80;99.90
37356;DHT22;48747;50.250;18.848;2023-05-07T01:55:04;9.80;99.90
37356;DHT22;48747;50.250;18.848;2023-05-07T01:57:08;9.80;99.90
37356;DHT22;48747;50.250;18.848;2023-05-07T01:59:13;9.80;99.90
37356;DHT22;48747;50.250;18.848;2023-05-07T02:01:20;9.80;99.90
37356;DHT22;48747;50.250;18.848;2023-05-07T02:03:31;9.80;99.90
37356;DHT22;48747;50.250;18.848;2023-05-07T02:05:35;9.80;99.90
37356;DHT22;48747;50.250;18.848;2023-05-07T02:07:41;9.80;99.90
37356;DHT22;48747;50.250;18.848;2023-05-07T02:09:43;9.70;99.90
37356;DHT22;48747;50.250;18.848;2023-05-07T02:11:48;9.70;99.90
37356;DHT22;48747;50.250;18.848;2023-05-07T02:13:54;9.80;99.90
37356;DHT22;48747;50.250;18.848;2023-05-07T02:16:18;9.80;99.90
37356;DHT22;48747;50.250;18.848;2023-05-07T02:18:08;9.70;99.90
37356;DHT22;48747;50.250;18.848;2023-05-07T02:20:14;9.60;99.90
37356;DHT22;48747;50.250;18.848;2023-05-07T02:22:19;9.60;99.90
37356;DHT22;48747;50.250;18.848;2023-05-07T02:24:27;9.50;99.90
37356;DHT22;48747;50.250;18.848;2023-05-07T02:26:30;9.50;99.90
37356;DHT22;48747;50.250;18.848;2023-05-07T02:28:37;9.50;99.90
37356;DHT22;48747;50.250;18.848;2023-05-07T02:30:39;9.40;99.90
37356;DHT22;48747;50.250;18.848;2023-05-07T02:32:44;9.40;99.90
37356;DHT22;48747;50.250;18.848;2023-05-07T02:34:57;9.50;99.90
37356;DHT22;48747;50.250;18.848;2023-05-07T02:36:56;9.50;99.90
37356;DHT22;48747;50.250;18.848;2023-05-07T02:38:59;9.50;99.90
37356;DHT22;48747;50.250;18.848;2023-05-07T02:41:09;9.40;99.90
37356;DHT22;48747;50.250;18.848;2023-05-07T02:43:11;9.40;99.90
37356;DHT22;48747;50.250;18.848;2023-05-07T02:45:18;9.40;99.90
37356;DHT22;48747;50.250;18.848;2023-05-07T02:47:27;9.30;99.90
37356;DHT22;48747;50.250;18.848;2023-05-07T02:49:33;9.30;99.90
37356;DHT22;48747;50.250;18.848;2023-05-07T02:51:38;9.30;99.90
37356;DHT22;48747;50.250;18.848;2023-05-07T02:53:41;9.30;99.90
37356;DHT22;48747;50.250;18.848;2023-05-07T02:55:48;9.30;99.90
37356;DHT22;48747;50.250;18.848;2023-05-07T02:57:56;9.20;99.90
37356;DHT22;48747;50.250;18.848;2023-05-07T02:59:59;9.20;99.90
37356;DHT22;48747;50.250;18.848;2023-05-07T03:02:02;9.20;99.90
37356;DHT22;48747;50.250;18.848;2023-05-07T03:04:05;9.20;99.90
37356;DHT22;48747;50.250;18.848;2023-05-07T03:06:11;9.10;99.90
37356;DHT22;48747;50.250;18.848;2023-05-07T03:08:18;9.10;99.90
37356;DHT22;48747;50.250;18.848;2023-05-07T03:10:27;9.10;99.90
37356;DHT22;48747;50.250;18.848;2023-05-07T03:12:28;9.10;99.90
37356;DHT22;48747;50.250;18.848;2023-05-07T03:14:31;9.10;99.90
37356;DHT22;48747;50.250;18.848;2023-05-07T03:16:36;9.10;99.90
37356;DHT22;48747;50.250;18.848;2023-05-07T03:18:47;9.10;99.90
37356;DHT22;48747;50.250;18.848;2023-05-07T03:20:48;9.00;99.90
37356;DHT22;48747;50.250;18.848;2023-05-07T03:22:52;9.00;99.90
37356;DHT22;48747;50.250;18.848;2023-05-07T03:24:55;9.00;99.90
37356;DHT22;48747;50.250;18.848;2023-05-07T03:26:59;9.00;99.90
37356;DHT22;48747;50.250;18.848;2023-05-07T03:29:11;9.00;99.90
37356;DHT22;48747;50.250;18.848;2023-05-07T03:31:14;9.00;99.90
37356;DHT22;48747;50.250;18.848;2023-05-07T03:33:18;9.00;99.90
37356;DHT22;48747;50.250;18.848;2023-05-07T03:35:24;9.00;99.90
37356;DHT22;48747;50.250;18.848;2023-05-07T03:37:32;9.00;99.90
37356;DHT22;48747;50.250;18.848;2023-05-07T03:39:35;9.00;99.90
37356;DHT22;48747;50.250;18.848;2023-05-07T03:41:39;9.00;99.90
37356;DHT22;48747;50.250;18.848;2023-05-07T03:43:43;9.00;99.90
37356;DHT22;48747;50.250;18.848;2023-05-07T03:45:46;9.00;99.90
37356;DHT22;48747;50.250;18.848;2023-05-07T03:47:51;9.00;99.90
37356;DHT22;48747;50.250;18.848;2023-05-07T03:49:54;9.10;99.90
37356;DHT22;48747;50.250;18.848;2023-05-07T03:52:05;9.00;99.90
37356;DHT22;48747;50.250;18.848;2023-05-07T03:54:11;9.00;99.90
37356;DHT22;48747;50.250;18.848;2023-05-07T03:56:11;9.00;99.90
37356;DHT22;48747;50.250;18.848;2023-05-07T03:58:16;9.10;99.90
37356;DHT22;48747;50.250;18.848;2023-05-07T04:00:28;9.00;99.90
37356;DHT22;48747;50.250;18.848;2023-05-07T04:02:33;8.90;99.90
37356;DHT22;48747;50.250;18.848;2023-05-07T04:04:39;8.80;99.90
37356;DHT22;48747;50.250;18.848;2023-05-07T04:06:45;8.80;99.90
37356;DHT22;48747;50.250;18.848;2023-05-07T04:08:50;8.80;99.90
37356;DHT22;48747;50.250;18.848;2023-05-07T04:10:57;8.80;99.90
37356;DHT22;48747;50.250;18.848;2023-05-07T04:13:07;8.80;99.90
37356;DHT22;48747;50.250;18.848;2023-05-07T04:15:09;8.70;99.90
37356;DHT22;48747;50.250;18.848;2023-05-07T04:17:17;8.70;99.90
37356;DHT22;48747;50.250;18.848;2023-05-07T04:19:20;8.70;99.90
37356;DHT22;48747;50.250;18.848;2023-05-07T04:21:32;8.80;99.90
37356;DHT22;48747;50.250;18.848;2023-05-07T04:23:28;8.80;99.90
37356;DHT22;48747;50.250;18.848;2023-05-07T04:25:33;8.80;99.90
37356;DHT22;48747;50.250;18.848;2023-05-07T04:27:43;8.80;99.90
37356;DHT22;48747;50.250;18.848;2023-05-07T04:29:42;8.70;99.90
37356;DHT22;48747;50.250;18.848;2023-05-07T04:31:47;8.70;99.90
37356;DHT22;48747;50.250;18.848;2023-05-07T04:33:52;8.70;99.90
37356;DHT22;48747;50.250;18.848;2023-05-07T04:35:58;8.70;99.90
37356;DHT22;48747;50.250;18.848;2023-05-07T04:38:05;8.70;99.90
37356;DHT22;48747;50.250;18.848;2023-05-07T04:40:14;8.70;99.90
37356;DHT22;48747;50.250;18.848;2023-05-07T04:42:16;8.70;99.90
37356;DHT22;48747;50.250;18.848;2023-05-07T04:44:21;8.70;99.90
37356;DHT22;48747;50.250;18.848;2023-05-07T04:46:26;8.70;99.90
37356;DHT22;48747;50.250;18.848;2023-05-07T04:48:29;8.70;99.90
37356;DHT22;48747;50.250;18.848;2023-05-07T04:50:32;8.80;99.90
37356;DHT22;48747;50.250;18.848;2023-05-07T04:52:35;8.70;99.90
37356;DHT22;48747;50.250;18.848;2023-05-07T04:54:43;8.70;99.90
37356;DHT22;48747;50.250;18.848;2023-05-07T04:56:50;8.70;99.90
37356;DHT22;48747;50.250;18.848;2023-05-07T04:58:51;8.60;99.90
37356;DHT22;48747;50.250;18.848;2023-05-07T05:00:59;8.60;99.90
37356;DHT22;48747;50.250;18.848;2023-05-07T05:03:02;8.60;99.90
37356;DHT22;48747;50.250;18.848;2023-05-07T05:05:05;8.60;99.90
37356;DHT22;48747;50.250;18.848;2023-05-07T05:07:10;8.50;99.90
37356;DHT22;48747;50.250;18.848;2023-05-07T05:09:14;8.50;99.90
37356;DHT22;48747;50.250;18.848;2023-05-07T05:11:19;8.50;99.90
37356;DHT22;48747;50.250;18.848;2023-05-07T05:13:24;8.50;99.90
37356;DHT22;48747;50.250;18.848;2023-05-07T05:15:30;8.40;99.90
37356;DHT22;48747;50.250;18.848;2023-05-07T05:17:33;8.40;99.90
37356;DHT22;48747;50.250;18.848;2023-05-07T05:19:38;8.40;99.90
37356;DHT22;48747;50.250;18.848;2023-05-07T05:21:41;8.50;99.90
37356;DHT22;48747;50.250;18.848;2023-05-07T05:23:44;8.40;99.90
37356;DHT22;48747;50.250;18.848;2023-05-07T05:25:47;8.40;99.90
37356;DHT22;48747;50.250;18.848;2023-05-07T05:27:50;8.40;99.90
37356;DHT22;48747;50.250;18.848;2023-05-07T05:29:53;8.40;99.90
37356;DHT22;48747;50.250;18.848;2023-05-07T05:31:58;8.50;99.90
37356;DHT22;48747;50.250;18.848;2023-05-07T05:34:01;8.60;99.90
37356;DHT22;48747;50.250;18.848;2023-05-07T05:36:10;8.50;99.90
37356;DHT22;48747;50.250;18.848;2023-05-07T05:38:17;8.50;99.90
37356;DHT22;48747;50.250;18.848;2023-05-07T05:40:19;8.40;99.90
37356;DHT22;48747;50.250;18.848;2023-05-07T05:42:24;8.30;99.90
37356;DHT22;48747;50.250;18.848;2023-05-07T05:44:30;8.30;99.90
37356;DHT22;48747;50.250;18.848;2023-05-07T05:46:35;8.30;99.90
37356;DHT22;48747;50.250;18.848;2023-05-07T05:48:38;8.30;99.90
37356;DHT22;48747;50.250;18.848;2023-05-07T05:50:43;8.30;99.90
37356;DHT22;48747;50.250;18.848;2023-05-07T05:52:46;8.20;99.90
37356;DHT22;48747;50.250;18.848;2023-05-07T05:54:49;8.30;99.90
37356;DHT22;48747;50.250;18.848;2023-05-07T05:56:52;8.20;99.90
37356;DHT22;48747;50.250;18.848;2023-05-07T05:58:57;8.20;99.90
37356;DHT22;48747;50.250;18.848;2023-05-07T06:01:09;8.30;99.90
37356;DHT22;48747;50.250;18.848;2023-05-07T06:03:17;8.30;99.90
37356;DHT22;48747;50.250;18.848;2023-05-07T06:05:22;8.30;99.90
37356;DHT22;48747;50.250;18.848;2023-05-07T06:07:31;8.30;99.90
37356;DHT22;48747;50.250;18.848;2023-05-07T06:09:34;8.30;99.90
37356;DHT22;48747;50.250;18.848;2023-05-07T06:11:37;8.30;99.90
37356;DHT22;48747;50.250;18.848;2023-05-07T06:13:39;8.40;99.90
37356;DHT22;48747;50.250;18.848;2023-05-07T06:15:47;8.40;99.90
37356;DHT22;48747;50.250;18.848;2023-05-07T06:17:50;8.30;99.90
37356;DHT22;48747;50.250;18.848;2023-05-07T06:19:59;8.30;99.90
37356;DHT22;48747;50.250;18.848;2023-05-07T06:22:04;8.40;99.90
37356;DHT22;48747;50.250;18.848;2023-05-07T06:24:22;8.40;99.90
37356;DHT22;48747;50.250;18.848;2023-05-07T06:26:12;8.40;99.90
37356;DHT22;48747;50.250;18.848;2023-05-07T06:28:15;8.50;99.90
37356;DHT22;48747;50.250;18.848;2023-05-07T06:30:18;8.50;99.90
37356;DHT22;48747;50.250;18.848;2023-05-07T06:32:21;8.60;99.90
37356;DHT22;48747;50.250;18.848;2023-05-07T06:34:26;8.60;99.90
37356;DHT22;48747;50.250;18.848;2023-05-07T06:36:29;8.60;99.90
37356;DHT22;48747;50.250;18.848;2023-05-07T06:38:32;8.50;99.90
37356;DHT22;48747;50.250;18.848;2023-05-07T06:40:37;8.50;99.90
37356;DHT22;48747;50.250;18.848;2023-05-07T06:42:40;8.40;99.90
37356;DHT22;48747;50.250;18.848;2023-05-07T06:44:45;8.20;99.90
37356;DHT22;48747;50.250;18.848;2023-05-07T06:46:49;8.10;99.90
37356;DHT22;48747;50.250;18.848;2023-05-07T06:49:07;8.20;99.90
37356;DHT22;48747;50.250;18.848;2023-05-07T06:53:34;8.30;99.90
37356;DHT22;48747;50.250;18.848;2023-05-07T06:55:39;8.20;99.90
37356;DHT22;48747;50.250;18.848;2023-05-07T07:02:18;8.20;99.90
37356;DHT22;48747;50.250;18.848;2023-05-07T07:24:14;8.40;99.90
37356;DHT22;48747;50.250;18.848;2023-05-07T07:31:01;8.90;99.90
37356;DHT22;48747;50.250;18.848;2023-05-07T07:33:05;8.90;99.90
37356;DHT22;48747;50.250;18.848;2023-05-07T07:39:26;8.80;99.90
37356;DHT22;48747;50.250;18.848;2023-05-07T07:41:41;8.70;99.90
37356;DHT22;48747;50.250;18.848;2023-05-07T07:43:59;8.70;99.90
37356;DHT22;48747;50.250;18.848;2023-05-07T07:52:19;8.70;99.90
37356;DHT22;48747;50.250;18.848;2023-05-07T07:58:54;8.80;99.90
37356;DHT22;48747;50.250;18.848;2023-05-07T08:01:05;8.90;99.90
37356;DHT22;48747;50.250;18.848;2023-05-07T08:03:17;9.00;99.90
37356;DHT22;48747;50.250;18.848;2023-05-07T08:07:49;9.50;99.90
37356;DHT22;48747;50.250;18.848;2023-05-07T08:12:04;9.30;99.90
37356;DHT22;48747;50.250;18.848;2023-05-07T08:18:49;9.40;99.90
37356;DHT22;48747;50.250;18.848;2023-05-07T08:23:09;9.10;99.90
37356;DHT22;48747;50.250;18.848;2023-05-07T08:25:18;9.10;99.90
37356;DHT22;48747;50.250;18.848;2023-05-07T08:29:57;8.80;99.90
37356;DHT22;48747;50.250;18.848;2023-05-07T08:32:16;9.00;99.90
37356;DHT22;48747;50.250;18.848;2023-05-07T08:36:54;9.40;99.90
37356;DHT22;48747;50.250;18.848;2023-05-07T08:43:46;9.40;99.90
37356;DHT22;48747;50.250;18.848;2023-05-07T08:45:55;9.40;99.90
37356;DHT22;48747;50.250;18.848;2023-05-07T08:48:30;9.40;99.90
37356;DHT22;48747;50.250;18.848;2023-05-07T08:50:20;9.10;99.90
37356;DHT22;48747;50.250;18.848;2023-05-07T08:52:28;9.00;99.90
37356;DHT22;48747;50.250;18.848;2023-05-07T08:54:54;9.10;99.90
37356;DHT22;48747;50.250;18.848;2023-05-07T08:57:06;9.20;99.90
37356;DHT22;48747;50.250;18.848;2023-05-07T09:01:53;9.30;99.90
37356;DHT22;48747;50.250;18.848;2023-05-07T09:04:51;9.30;99.90
37356;DHT22;48747;50.250;18.848;2023-05-07T09:15:12;9.50;99.90
37356;DHT22;48747;50.250;18.848;2023-05-07T09:26:30;9.70;99.90
37356;DHT22;48747;50.250;18.848;2023-05-07T09:33:07;9.50;99.90
37356;DHT22;48747;50.250;18.848;2023-05-07T09:42:32;9.30;99.90
37356;DHT22;48747;50.250;18.848;2023-05-07T09:44:21;9.20;99.90
37356;DHT22;48747;50.250;18.848;2023-05-07T09:46:36;9.30;99.90
37356;DHT22;48747;50.250;18.848;2023-05-07T09:58:23;9.30;99.90
37356;DHT22;48747;50.250;18.848;2023-05-07T10:02:48;9.10;99.90
37356;DHT22;48747;50.250;18.848;2023-05-07T10:05:08;9.20;99.90
37356;DHT22;48747;50.250;18.848;2023-05-07T10:09:43;9.30;99.90
37356;DHT22;48747;50.250;18.848;2023-05-07T10:13:52;9.20;99.90
37356;DHT22;48747;50.250;18.848;2023-05-07T10:16:07;9.10;99.90
37356;DHT22;48747;50.250;18.848;2023-05-07T10:21:02;9.20;99.90
37356;DHT22;48747;50.250;18.848;2023-05-07T10:22:43;9.30;99.90
37356;DHT22;48747;50.250;18.848;2023-05-07T10:24:50;9.30;99.90
37356;DHT22;48747;50.250;18.848;2023-05-07T10:29:18;9.20;99.90
37356;DHT22;48747;50.250;18.848;2023-05-07T10:34:07;9.20;99.90
37356;DHT22;48747;50.250;18.848;2023-05-07T10:38:33;9.30;99.90
37356;DHT22;48747;50.250;18.848;2023-05-07T10:40:37;9.30;99.90
37356;DHT22;48747;50.250;18.848;2023-05-07T10:43:00;9.30;99.90
37356;DHT22;48747;50.250;18.848;2023-05-07T10:54:31;9.70;99.90
37356;DHT22;48747;50.250;18.848;2023-05-07T10:56:49;9.80;99.90
37356;DHT22;48747;50.250;18.848;2023-05-07T11:04:19;9.90;99.90
37356;DHT22;48747;50.250;18.848;2023-05-07T11:13:55;9.90;99.90
37356;DHT22;48747;50.250;18.848;2023-05-07T11:16:24;10.00;99.90
37356;DHT22;48747;50.250;18.848;2023-05-07T11:18:56;10.10;99.90
37356;DHT22;48747;50.250;18.848;2023-05-07T11:21:13;10.20;99.90
37356;DHT22;48747;50.250;18.848;2023-05-07T11:27:58;9.90;99.90
37356;DHT22;48747;50.250;18.848;2023-05-07T11:30:21;9.60;99.90
37356;DHT22;48747;50.250;18.848;2023-05-07T11:32:10;9.60;99.90
37356;DHT22;48747;50.250;18.848;2023-05-07T11:36:41;9.50;99.90
37356;DHT22;48747;50.250;18.848;2023-05-07T11:38:47;9.60;99.90
37356;DHT22;48747;50.250;18.848;2023-05-07T11:40:52;9.60;99.90
37356;DHT22;48747;50.250;18.848;2023-05-07T11:42:57;9.60;99.90
37356;DHT22;48747;50.250;18.848;2023-05-07T11:45:11;9.80;99.90
37356;DHT22;48747;50.250;18.848;2023-05-07T11:47:17;10.10;99.90
37356;DHT22;48747;50.250;18.848;2023-05-07T11:51:34;10.40;99.90
37356;DHT22;48747;50.250;18.848;2023-05-07T11:53:39;10.20;99.90
37356;DHT22;48747;50.250;18.848;2023-05-07T11:55:50;10.20;99.90
37356;DHT22;48747;50.250;18.848;2023-05-07T12:15:10;9.20;99.90
37356;DHT22;48747;50.250;18.848;2023-05-07T12:17:30;9.10;99.90
37356;DHT22;48747;50.250;18.848;2023-05-07T12:19:33;9.20;99.90
37356;DHT22;48747;50.250;18.848;2023-05-07T15:50:58;8.60;99.90
37356;DHT22;48747;50.250;18.848;2023-05-07T15:53:02;8.60;99.90
37356;DHT22;48747;50.250;18.848;2023-05-07T15:57:55;8.60;99.90
37356;DHT22;48747;50.250;18.848;2023-05-07T16:08:01;8.60;99.90
37356;DHT22;48747;50.250;18.848;2023-05-07T16:10:18;8.70;99.90
37356;DHT22;48747;50.250;18.848;2023-05-07T16:25:13;8.70;99.90
37356;DHT22;48747;50.250;18.848;2023-05-07T16:39:53;8.50;99.90
37356;DHT22;48747;50.250;18.848;2023-05-07T16:41:47;8.40;99.90
37356;DHT22;48747;50.250;18.848;2023-05-07T17:05:04;8.30;99.90
37356;DHT22;48747;50.250;18.848;2023-05-07T17:07:10;8.30;99.90
37356;DHT22;48747;50.250;18.848;2023-05-07T17:09:13;8.30;99.90
37356;DHT22;48747;50.250;18.848;2023-05-07T17:13:56;8.30;99.90
37356;DHT22;48747;50.250;18.848;2023-05-07T17:16:17;8.30;99.90
37356;DHT22;48747;50.250;18.848;2023-05-07T17:18:16;8.20;99.90
37356;DHT22;48747;50.250;18.848;2023-05-07T17:25:00;8.30;99.90
37356;DHT22;48747;50.250;18.848;2023-05-07T17:29:18;8.30;99.90
37356;DHT22;48747;50.250;18.848;2023-05-07T17:31:23;8.30;99.90
37356;DHT22;48747;50.250;18.848;2023-05-07T17:33:30;8.30;99.90
37356;DHT22;48747;50.250;18.848;2023-05-07T17:35:33;8.30;99.90
37356;DHT22;48747;50.250;18.848;2023-05-07T17:37:59;8.20;99.90
37356;DHT22;48747;50.250;18.848;2023-05-07T17:40:19;8.20;99.90
37356;DHT22;48747;50.250;18.848;2023-05-07T17:42:13;8.10;99.90
37356;DHT22;48747;50.250;18.848;2023-05-07T17:44:13;8.20;99.90
37356;DHT22;48747;50.250;18.848;2023-05-07T17:46:17;8.30;99.90
37356;DHT22;48747;50.250;18.848;2023-05-07T17:48:29;8.30;99.90
37356;DHT22;48747;50.250;18.848;2023-05-07T17:50:39;8.30;99.90
37356;DHT22;48747;50.250;18.848;2023-05-07T18:02:56;8.20;99.90
37356;DHT22;48747;50.250;18.848;2023-05-07T18:17:09;8.10;99.90
37356;DHT22;48747;50.250;18.848;2023-05-07T18:19:15;8.10;99.90
37356;DHT22;48747;50.250;18.848;2023-05-07T18:26:00;8.00;99.90
37356;DHT22;48747;50.250;18.848;2023-05-07T18:28:21;8.10;99.90
37356;DHT22;48747;50.250;18.848;2023-05-07T18:30:10;8.10;99.90
37356;DHT22;48747;50.250;18.848;2023-05-07T18:32:13;8.10;99.90
37356;DHT22;48747;50.250;18.848;2023-05-07T18:34:25;8.10;99.90
37356;DHT22;48747;50.250;18.848;2023-05-07T18:36:25;8.10;99.90
37356;DHT22;48747;50.250;18.848;2023-05-07T18:38:30;8.10;99.90
37356;DHT22;48747;50.250;18.848;2023-05-07T18:40:34;8.10;99.90
37356;DHT22;48747;50.250;18.848;2023-05-07T18:42:39;8.10;99.90
37356;DHT22;48747;50.250;18.848;2023-05-07T18:44:42;8.10;99.90
37356;DHT22;48747;50.250;18.848;2023-05-07T18:46:45;8.00;99.90
37356;DHT22;48747;50.250;18.848;2023-05-07T18:48:50;8.00;99.90
37356;DHT22;48747;50.250;18.848;2023-05-07T18:51:03;8.00;99.90
37356;DHT22;48747;50.250;18.848;2023-05-07T18:53:07;8.00;99.90
37356;DHT22;48747;50.250;18.848;2023-05-07T18:55:12;8.00;99.90
37356;DHT22;48747;50.250;18.848;2023-05-07T18:57:22;7.90;99.90
37356;DHT22;48747;50.250;18.848;2023-05-07T18:59:28;7.90;99.90
37356;DHT22;48747;50.250;18.848;2023-05-07T19:01:33;8.00;99.90
37356;DHT22;48747;50.250;18.848;2023-05-07T19:03:36;8.00;99.90
37356;DHT22;48747;50.250;18.848;2023-05-07T19:05:39;8.00;99.90
37356;DHT22;48747;50.250;18.848;2023-05-07T19:07:43;8.00;99.90
37356;DHT22;48747;50.250;18.848;2023-05-07T19:09:48;7.90;99.90
37356;DHT22;48747;50.250;18.848;2023-05-07T19:11:58;7.90;99.90
37356;DHT22;48747;50.250;18.848;2023-05-07T19:14:00;7.90;99.90
37356;DHT22;48747;50.250;18.848;2023-05-07T19:16:03;8.00;99.90
37356;DHT22;48747;50.250;18.848;2023-05-07T19:18:08;8.00;99.90
37356;DHT22;48747;50.250;18.848;2023-05-07T19:20:13;8.00;99.90
37356;DHT22;48747;50.250;18.848;2023-05-07T19:22:30;8.00;99.90
37356;DHT22;48747;50.250;18.848;2023-05-07T19:24:30;8.00;99.90
37356;DHT22;48747;50.250;18.848;2023-05-07T19:26:35;8.00;99.90
37356;DHT22;48747;50.250;18.848;2023-05-07T19:28:50;7.90;99.90
37356;DHT22;48747;50.250;18.848;2023-05-07T19:30:52;7.90;99.90
37356;DHT22;48747;50.250;18.848;2023-05-07T19:32:55;7.90;99.90
37356;DHT22;48747;50.250;18.848;2023-05-07T19:35:00;7.90;99.90
37356;DHT22;48747;50.250;18.848;2023-05-07T19:37:07;7.90;99.90
37356;DHT22;48747;50.250;18.848;2023-05-07T19:39:10;7.90;99.90
37356;DHT22;48747;50.250;18.848;2023-05-07T19:43:31;7.80;99.90
37356;DHT22;48747;50.250;18.848;2023-05-07T19:45:31;7.80;99.90
37356;DHT22;48747;50.250;18.848;2023-05-07T19:47:36;7.90;99.90
37356;DHT22;48747;50.250;18.848;2023-05-07T19:49:42;7.80;99.90
37356;DHT22;48747;50.250;18.848;2023-05-07T19:53:54;7.90;99.90
37356;DHT22;48747;50.250;18.848;2023-05-07T19:56:06;7.80;99.90
37356;DHT22;48747;50.250;18.848;2023-05-07T19:58:09;7.80;99.90
37356;DHT22;48747;50.250;18.848;2023-05-07T20:00:20;7.80;99.90
37356;DHT22;48747;50.250;18.848;2023-05-07T20:02:24;7.90;99.90
37356;DHT22;48747;50.250;18.848;2023-05-07T20:04:30;7.90;99.90
37356;DHT22;48747;50.250;18.848;2023-05-07T20:06:38;7.80;99.90
37356;DHT22;48747;50.250;18.848;2023-05-07T20:08:41;7.80;99.90
37356;DHT22;48747;50.250;18.848;2023-05-07T20:10:55;7.80;99.90
37356;DHT22;48747;50.250;18.848;2023-05-07T20:12:54;7.80;99.90
37356;DHT22;48747;50.250;18.848;2023-05-07T20:14:58;7.80;99.90
37356;DHT22;48747;50.250;18.848;2023-05-07T20:17:07;7.80;99.90
37356;DHT22;48747;50.250;18.848;2023-05-07T20:19:18;7.80;99.90
37356;DHT22;48747;50.250;18.848;2023-05-07T20:21:25;7.80;99.90
37356;DHT22;48747;50.250;18.848;2023-05-07T20:28:22;7.80;99.90
37356;DHT22;48747;50.250;18.848;2023-05-07T20:30:27;7.90;99.90
37356;DHT22;48747;50.250;18.848;2023-05-07T20:32:31;7.80;99.90
37356;DHT22;48747;50.250;18.848;2023-05-07T20:34:38;7.70;99.90
37356;DHT22;48747;50.250;18.848;2023-05-07T20:36:41;7.70;99.90
37356;DHT22;48747;50.250;18.848;2023-05-07T20:38:46;7.70;99.90
37356;DHT22;48747;50.250;18.848;2023-05-07T20:40:49;7.70;99.90
37356;DHT22;48747;50.250;18.848;2023-05-07T20:42:54;7.70;99.90
37356;DHT22;48747;50.250;18.848;2023-05-07T20:44:57;7.80;99.90
37356;DHT22;48747;50.250;18.848;2023-05-07T20:47:00;7.80;99.90
37356;DHT22;48747;50.250;18.848;2023-05-07T20:49:04;7.70;99.90
37356;DHT22;48747;50.250;18.848;2023-05-07T20:53:55;7.80;99.90
37356;DHT22;48747;50.250;18.848;2023-05-07T20:58:14;7.70;99.90
37356;DHT22;48747;50.250;18.848;2023-05-07T21:03:02;7.70;99.90
37356;DHT22;48747;50.250;18.848;2023-05-07T21:21:08;7.60;99.90
37356;DHT22;48747;50.250;18.848;2023-05-07T21:23:12;7.50;99.90
37356;DHT22;48747;50.250;18.848;2023-05-07T21:29:40;7.50;99.90
37356;DHT22;48747;50.250;18.848;2023-05-07T21:32:08;7.50;99.90
37356;DHT22;48747;50.250;18.848;2023-05-07T21:41:04;7.40;99.90
37356;DHT22;48747;50.250;18.848;2023-05-07T21:45:42;7.40;99.90
37356;DHT22;48747;50.250;18.848;2023-05-07T21:50:30;7.40;99.90
37356;DHT22;48747;50.250;18.848;2023-05-07T21:52:21;7.40;99.90
37356;DHT22;48747;50.250;18.848;2023-05-07T21:54:33;7.30;99.90
37356;DHT22;48747;50.250;18.848;2023-05-07T21:56:54;7.20;99.90
37356;DHT22;48747;50.250;18.848;2023-05-07T21:58:56;7.10;99.90
37356;DHT22;48747;50.250;18.848;2023-05-07T22:01:15;7.10;99.90
37356;DHT22;48747;50.250;18.848;2023-05-07T22:03:23;7.00;99.90
37356;DHT22;48747;50.250;18.848;2023-05-07T22:05:40;7.10;99.90